Time;durP1;ratioP1;P1;durP2;ratioP2;P2;SDS_P1;SDS_P2;PMS_P1;PMS_P2;Temp;Humidity;BMP_temperature;BMP_pressure;BME280_temperature;BME280_humidity;BME280_pressure;Samples;Min_cycle;Max_cycle;Signal;HPM_P1;HPM_P2
2021/06/20 00:02:04;;;;;;;13.57;12.38;;;;;;;;;;1911167;75;20081;-82
2021/06/20 00:04:31;;;;;;;12.88;11.57;;;;;;;;;;1912241;75;20142;-83
2021/06/20 00:06:58;;;;;;;13.57;12.30;;;;;;;;;;1911801;75;20105;-79
2021/06/20 00:09:24;;;;;;;12.50;11.32;;;;;;;;;;1911831;75;20444;-80
2021/06/20 00:11:51;;;;;;;13.30;12.10;;;;;;;;;;1912352;75;20436;-82
2021/06/20 00:14:19;;;;;;;13.27;12.00;;;;;;;;;;1912463;75;20096;-80
2021/06/20 00:16:46;;;;;;;13.50;12.25;;;;;;;;;;1912542;75;20142;-79
2021/06/20 00:19:13;;;;;;;13.13;11.82;;;;;;;;;;1912333;75;20088;-80
2021/06/20 00:21:41;;;;;;;12.55;11.40;;;;;;;;;;1912467;75;20084;-80
2021/06/20 00:24:08;;;;;;;12.70;11.55;;;;;;;;;;1912487;75;20102;-81
2021/06/20 00:26:35;;;;;;;13.23;12.13;;;;;;;;;;1912490;75;20153;-81
2021/06/20 00:29:02;;;;;;;12.60;11.50;;;;;;;;;;1912684;75;20157;-81
2021/06/20 00:31:30;;;;;;;13.60;12.38;;;;;;;;;;1912906;75;20092;-82
2021/06/20 00:33:57;;;;;;;14.00;12.80;;;;;;;;;;1912300;75;20087;-82
2021/06/20 00:36:24;;;;;;;13.52;12.32;;;;;;;;;;1912155;75;20114;-80
2021/06/20 00:38:50;;;;;;;12.95;11.65;;;;;;;;;;1912236;75;20092;-79
2021/06/20 00:41:17;;;;;;;13.77;12.48;;;;;;;;;;1911469;75;20092;-80
2021/06/20 00:43:44;;;;;;;13.13;11.88;;;;;;;;;;1912371;75;20544;-81
2021/06/20 00:46:11;;;;;;;13.00;11.80;;;;;;;;;;1912272;75;20088;-81
2021/06/20 00:48:39;;;;;;;13.00;11.80;;;;;;;;;;1912499;75;20092;-79
2021/06/20 00:51:06;;;;;;;13.57;11.98;;;;;;;;;;1914465;75;20525;-81
2021/06/20 00:53:33;;;;;;;13.20;11.80;;;;;;;;;;1913874;75;20091;-81
2021/06/20 00:56:00;;;;;;;13.73;12.45;;;;;;;;;;1914807;75;20123;-81
2021/06/20 00:58:27;;;;;;;13.18;12.07;;;;;;;;;;1915399;75;20092;-80
2021/06/20 01:00:54;;;;;;;14.18;12.65;;;;;;;;;;1914747;75;20092;-80
2021/06/20 01:03:21;;;;;;;13.23;12.05;;;;;;;;;;1914909;75;20110;-80
2021/06/20 01:05:49;;;;;;;13.20;11.93;;;;;;;;;;1915642;75;20146;-81
2021/06/20 01:08:16;;;;;;;14.00;12.52;;;;;;;;;;1915146;75;20092;-82
2021/06/20 01:10:43;;;;;;;13.30;12.10;;;;;;;;;;1915790;75;20092;-83
2021/06/20 01:13:12;;;;;;;13.10;11.93;;;;;;;;;;1915434;75;20092;-81
2021/06/20 01:15:40;;;;;;;13.97;12.57;;;;;;;;;;1915134;75;20088;-81
2021/06/20 01:18:08;;;;;;;13.27;12.07;;;;;;;;;;1914261;75;20118;-79
2021/06/20 01:20:35;;;;;;;14.00;12.73;;;;;;;;;;1912717;75;20088;-82
2021/06/20 01:23:04;;;;;;;13.93;12.63;;;;;;;;;;1912088;75;20119;-82
2021/06/20 01:25:33;;;;;;;14.15;12.65;;;;;;;;;;1912206;75;20088;-81
2021/06/20 01:28:04;;;;;;;14.02;12.73;;;;;;;;;;1912011;75;20096;-82
2021/06/20 01:30:34;;;;;;;14.23;12.90;;;;;;;;;;1911972;75;20081;-81
2021/06/20 01:33:01;;;;;;;;;;;;;;;;;;1912454;75;20084;-81
2021/06/20 01:35:28;;;;;;;14.00;12.60;;;;;;;;;;1915702;75;19967;-79
2021/06/20 01:37:57;;;;;;;14.57;13.27;;;;;;;;;;1912176;75;20092;-81
2021/06/20 01:40:25;;;;;;;14.63;13.23;;;;;;;;;;1910880;75;20098;-81
2021/06/20 01:42:54;;;;;;;15.13;13.63;;;;;;;;;;1910645;75;20083;-81
2021/06/20 01:45:22;;;;;;;14.65;13.15;;;;;;;;;;1910585;75;20094;-82
2021/06/20 01:47:50;;;;;;;15.00;13.50;;;;;;;;;;1910511;75;20233;-81
2021/06/20 01:50:18;;;;;;;15.13;13.73;;;;;;;;;;1910707;75;20150;-81
2021/06/20 01:52:45;;;;;;;14.70;13.30;;;;;;;;;;1910341;75;20448;-81
2021/06/20 01:55:14;;;;;;;14.95;13.45;;;;;;;;;;1910510;75;20154;-81
2021/06/20 01:57:44;;;;;;;15.93;14.40;;;;;;;;;;1910382;75;20170;-81
2021/06/20 02:00:14;;;;;;;15.02;13.73;;;;;;;;;;1910568;75;20091;-81
2021/06/20 02:02:41;;;;;;;14.48;13.15;;;;;;;;;;1910772;75;20095;-80
2021/06/20 02:05:09;;;;;;;14.63;13.30;;;;;;;;;;1910330;75;20122;-81
2021/06/20 02:07:37;;;;;;;14.40;13.15;;;;;;;;;;1910631;75;20096;-81
2021/06/20 02:13:43;;;;;;;15.40;14.00;;;;;;;;;;1909645;75;20084;-81
2021/06/20 02:16:09;;;;;;;15.43;13.98;;;;;;;;;;1910717;75;20146;-81
2021/06/20 02:18:36;;;;;;;15.07;13.50;;;;;;;;;;1910608;75;20414;-81
2021/06/20 02:21:03;;;;;;;14.98;13.68;;;;;;;;;;1910424;75;20122;-80
2021/06/20 02:23:30;;;;;;;15.93;14.38;;;;;;;;;;1910925;75;20127;-81
2021/06/20 02:25:56;;;;;;;15.20;13.80;;;;;;;;;;1912859;75;20099;-80
2021/06/20 02:28:23;;;;;;;17.25;15.63;;;;;;;;;;1916181;75;20410;-81
2021/06/20 02:30:52;;;;;;;17.23;15.70;;;;;;;;;;1913112;75;20437;-81
2021/06/20 02:33:19;;;;;;;16.33;14.70;;;;;;;;;;1911058;75;20118;-81
2021/06/20 02:35:46;;;;;;;15.68;14.18;;;;;;;;;;1910593;75;20092;-82
2021/06/20 02:38:13;;;;;;;15.55;14.05;;;;;;;;;;1910555;75;20084;-81
2021/06/20 02:40:39;;;;;;;16.42;14.73;;;;;;;;;;1911072;75;20122;-80
2021/06/20 02:43:06;;;;;;;15.40;14.00;;;;;;;;;;1916005;75;20092;-81
2021/06/20 02:45:33;;;;;;;15.32;13.77;;;;;;;;;;1916133;75;20568;-80
2021/06/20 02:48:01;;;;;;;15.48;14.07;;;;;;;;;;1914470;75;20092;-81
2021/06/20 02:50:29;;;;;;;15.45;14.00;;;;;;;;;;1915470;75;20080;-81
2021/06/20 02:52:55;;;;;;;15.50;14.10;;;;;;;;;;1913212;75;20145;-81
2021/06/20 02:55:22;;;;;;;15.27;13.68;;;;;;;;;;1910777;75;20445;-81
2021/06/20 02:57:49;;;;;;;15.48;14.07;;;;;;;;;;1910698;75;20096;-82
2021/06/20 03:00:16;;;;;;;15.05;13.60;;;;;;;;;;1910925;75;20084;-82
2021/06/20 03:02:43;;;;;;;15.23;13.93;;;;;;;;;;1910697;75;20494;-82
2021/06/20 03:05:12;;;;;;;15.43;14.02;;;;;;;;;;1910923;75;20420;-82
2021/06/20 03:07:39;;;;;;;16.77;15.18;;;;;;;;;;1910995;75;20092;-81
2021/06/20 03:10:07;;;;;;;16.08;14.63;;;;;;;;;;1910795;75;20122;-81
2021/06/20 03:12:34;;;;;;;16.00;14.52;;;;;;;;;;1912195;75;20087;-81
2021/06/20 03:15:01;;;;;;;15.93;14.43;;;;;;;;;;1912253;75;20092;-82
2021/06/20 03:17:28;;;;;;;15.57;14.18;;;;;;;;;;1912249;75;20092;-80
2021/06/20 03:19:55;;;;;;;15.32;13.93;;;;;;;;;;1912299;75;20096;-81
2021/06/20 03:22:23;;;;;;;16.63;15.15;;;;;;;;;;1912356;75;20141;-81
2021/06/20 03:24:52;;;;;;;15.20;13.80;;;;;;;;;;1912111;75;20088;-81
2021/06/20 03:27:20;;;;;;;16.38;14.88;;;;;;;;;;1912353;75;20092;-82
2021/06/20 03:29:47;;;;;;;15.93;14.43;;;;;;;;;;1911770;75;20157;-81
2021/06/20 03:32:17;;;;;;;16.65;15.05;;;;;;;;;;1910950;75;20118;-81
2021/06/20 03:34:43;;;;;;;;;;;;;;;;;;1911375;75;20144;-81
2021/06/20 03:37:13;;;;;;;15.75;14.30;;;;;;;;;;1910564;75;20297;-81
2021/06/20 03:39:44;;;;;;;16.02;14.63;;;;;;;;;;1910514;75;20084;-81
2021/06/20 03:42:11;;;;;;;15.77;14.32;;;;;;;;;;1910719;75;20088;-81
2021/06/20 03:44:43;;;;;;;15.38;13.98;;;;;;;;;;1910935;75;20092;-82
2021/06/20 03:47:11;;;;;;;16.00;14.50;;;;;;;;;;1910792;75;20149;-82
2021/06/20 03:49:39;;;;;;;15.57;14.07;;;;;;;;;;1910968;75;20118;-81
2021/06/20 03:52:07;;;;;;;14.95;13.55;;;;;;;;;;1910808;75;20092;-81
2021/06/20 03:54:33;;;;;;;15.25;13.90;;;;;;;;;;1910751;75;20155;-81
2021/06/20 03:57:02;;;;;;;15.52;14.18;;;;;;;;;;1910946;75;20095;-81
2021/06/20 03:59:29;;;;;;;16.25;14.85;;;;;;;;;;1910746;67;20095;-80
2021/06/20 04:01:56;;;;;;;15.68;14.18;;;;;;;;;;1911047;75;20084;-81
2021/06/20 04:04:23;;;;;;;16.45;14.88;;;;;;;;;;1911160;75;20428;-81
2021/06/20 04:06:51;;;;;;;15.32;13.98;;;;;;;;;;1910850;75;20092;-80
2021/06/20 04:09:20;;;;;;;16.25;14.75;;;;;;;;;;1910522;75;20501;-82
2021/06/20 04:11:47;;;;;;;15.97;14.57;;;;;;;;;;1910460;75;20096;-81
2021/06/20 04:14:16;;;;;;;15.32;14.00;;;;;;;;;;1910127;75;20092;-80
2021/06/20 04:16:44;;;;;;;16.00;14.60;;;;;;;;;;1910255;75;20099;-79
2021/06/20 04:19:11;;;;;;;16.00;14.50;;;;;;;;;;1910690;75;20084;-81
2021/06/20 04:21:37;;;;;;;16.58;14.95;;;;;;;;;;1910872;75;20110;-81
2021/06/20 04:24:05;;;;;;;15.25;13.82;;;;;;;;;;1911078;75;20440;-80
2021/06/20 04:26:51;;;;;;;15.20;13.80;;;;;;;;;;1911718;75;20444;-81
2021/06/20 04:29:19;;;;;;;16.33;14.85;;;;;;;;;;1912184;75;20084;-81
2021/06/20 04:31:46;;;;;;;15.55;14.10;;;;;;;;;;1915929;75;20088;-80
2021/06/20 04:34:13;;;;;;;15.38;13.98;;;;;;;;;;1916336;75;20088;-82
2021/06/20 04:36:40;;;;;;;14.82;13.52;;;;;;;;;;1916458;75;20092;-81
2021/06/20 04:39:08;;;;;;;14.43;13.07;;;;;;;;;;1916131;75;20096;-80
2021/06/20 04:41:35;;;;;;;15.00;13.60;;;;;;;;;;1912155;75;20111;-80
2021/06/20 04:44:04;;;;;;;14.48;13.18;;;;;;;;;;1912042;75;20146;-81
2021/06/20 04:46:34;;;;;;;14.90;13.48;;;;;;;;;;1912020;75;20099;-80
2021/06/20 04:49:03;;;;;;;14.70;13.30;;;;;;;;;;1911968;75;20131;-80
2021/06/20 04:51:31;;;;;;;14.33;12.97;;;;;;;;;;1911840;75;20141;-80
2021/06/20 04:53:59;;;;;;;14.10;12.77;;;;;;;;;;1912084;75;20116;-81
2021/06/20 04:56:26;;;;;;;14.65;13.35;;;;;;;;;;1912045;75;20084;-82
2021/06/20 04:58:54;;;;;;;14.15;12.75;;;;;;;;;;1914186;67;20502;-80
2021/06/20 05:01:21;;;;;;;14.88;13.48;;;;;;;;;;1912217;75;20091;-81
2021/06/20 05:03:49;;;;;;;14.13;12.82;;;;;;;;;;1911571;75;20149;-82
2021/06/20 05:06:16;;;;;;;13.45;12.18;;;;;;;;;;1911999;75;20088;-82
2021/06/20 05:08:43;;;;;;;13.77;12.48;;;;;;;;;;1912206;75;20103;-81
2021/06/20 05:11:10;;;;;;;14.10;12.70;;;;;;;;;;1911888;75;20084;-83
2021/06/20 05:13:36;;;;;;;13.60;12.30;;;;;;;;;;1913077;75;20096;-79
2021/06/20 05:16:04;;;;;;;13.95;12.65;;;;;;;;;;1917648;75;20122;-80
2021/06/20 05:18:31;;;;;;;13.80;12.40;;;;;;;;;;1915591;75;20080;-82
2021/06/20 05:20:59;;;;;;;14.05;12.73;;;;;;;;;;1911238;75;20390;-81
2021/06/20 05:23:29;;;;;;;14.63;13.23;;;;;;;;;;1911843;75;20425;-81
2021/06/20 05:25:56;;;;;;;;;;;;;;;;;;1912041;75;20128;-82
2021/06/20 05:28:22;;;;;;;14.07;12.77;;;;;;;;;;1912053;75;19971;-81
2021/06/20 05:30:49;;;;;;;14.73;12.93;;;;;;;;;;1911997;75;20150;-81
2021/06/20 05:33:17;;;;;;;14.57;13.13;;;;;;;;;;1911982;75;20114;-82
2021/06/20 05:35:44;;;;;;;15.23;12.70;;;;;;;;;;1912287;75;20096;-82
2021/06/20 05:38:13;;;;;;;14.45;12.93;;;;;;;;;;1911902;75;20088;-81
2021/06/20 05:40:42;;;;;;;14.68;13.25;;;;;;;;;;1912065;75;20092;-82
2021/06/20 05:43:09;;;;;;;14.10;12.55;;;;;;;;;;1912076;75;20501;-81
2021/06/20 05:45:37;;;;;;;13.52;12.20;;;;;;;;;;1912197;75;20088;-81
2021/06/20 05:48:05;;;;;;;14.35;12.68;;;;;;;;;;1911924;75;20157;-80
2021/06/20 05:50:32;;;;;;;19.58;13.52;;;;;;;;;;1911857;75;20092;-81
2021/06/20 05:52:59;;;;;;;14.50;12.98;;;;;;;;;;1911519;75;20394;-81
2021/06/20 05:55:27;;;;;;;15.82;12.73;;;;;;;;;;1910223;75;20088;-81
2021/06/20 05:57:54;;;;;;;14.52;13.02;;;;;;;;;;1910459;75;20092;-81
2021/06/20 06:05:23;;;;;;;15.52;13.98;;;;;;;;;;1920242;75;20087;-79
2021/06/20 06:07:50;;;;;;;15.38;13.80;;;;;;;;;;1920833;75;20091;-80
2021/06/20 06:10:21;;;;;;;12.88;11.57;;;;;;;;;;1920554;75;20520;-80
2021/06/20 06:13:04;;;;;;;12.88;11.18;;;;;;;;;;1920495;75;20083;-80
2021/06/20 06:15:32;;;;;;;13.50;12.10;;;;;;;;;;1920878;75;20124;-80
2021/06/20 06:17:59;;;;;;;15.43;12.57;;;;;;;;;;1920620;75;20107;-79
2021/06/20 06:20:27;;;;;;;17.42;12.63;;;;;;;;;;1919939;75;20528;-80
2021/06/20 06:22:55;;;;;;;17.25;11.38;;;;;;;;;;1920707;75;20091;-78
2021/06/20 06:25:22;;;;;;;13.30;10.70;;;;;;;;;;1917819;75;20090;-80
2021/06/20 06:27:50;;;;;;;14.52;11.82;;;;;;;;;;1920289;75;20188;-79
2021/06/20 06:30:18;;;;;;;17.20;11.30;;;;;;;;;;1920185;75;20098;-79
2021/06/20 06:32:46;;;;;;;14.18;10.43;;;;;;;;;;1920481;75;20117;-79
2021/06/20 06:35:14;;;;;;;18.42;12.45;;;;;;;;;;1920539;75;20083;-79
2021/06/20 06:37:41;;;;;;;17.85;11.27;;;;;;;;;;1920778;75;20102;-80
2021/06/20 06:40:15;;;;;;;14.90;10.43;;;;;;;;;;1920910;75;20124;-80
2021/06/20 06:42:42;;;;;;;17.20;10.13;;;;;;;;;;1919948;75;20094;-79
2021/06/20 06:45:11;;;;;;;14.50;10.35;;;;;;;;;;1921949;75;20116;-80
2021/06/20 06:47:38;;;;;;;17.58;10.48;;;;;;;;;;1921820;75;20113;-80
2021/06/20 06:50:36;;;;;;;15.70;9.30;;;;;;;;;;1921646;75;20097;-79
2021/06/20 06:53:03;;;;;;;14.07;10.00;;;;;;;;;;1921130;75;20390;-79
2021/06/20 06:55:30;;;;;;;14.18;9.90;;;;;;;;;;1920811;75;20105;-80
2021/06/20 06:57:57;;;;;;;16.60;9.40;;;;;;;;;;1920284;75;20087;-80
2021/06/20 07:00:26;;;;;;;15.25;9.75;;;;;;;;;;1920309;75;20087;-80
2021/06/20 07:02:53;;;;;;;14.38;9.60;;;;;;;;;;1920694;75;20083;-79
2021/06/20 07:05:20;;;;;;;16.55;9.85;;;;;;;;;;1920741;67;20095;-79
2021/06/20 07:07:50;;;;;;;14.15;9.32;;;;;;;;;;1916734;75;20114;-80
2021/06/20 07:10:17;;;;;;;15.98;10.00;;;;;;;;;;1910708;75;20084;-79
2021/06/20 07:12:44;;;;;;;18.08;10.30;;;;;;;;;;1916936;75;20087;-80
2021/06/20 07:15:12;;;;;;;16.33;10.43;;;;;;;;;;1920978;75;20113;-80
2021/06/20 07:17:40;;;;;;;19.90;15.30;;;;;;;;;;1920983;75;20099;-79
2021/06/20 07:20:14;;;;;;;13.65;10.20;;;;;;;;;;1920387;75;20087;-79
2021/06/20 07:22:42;;;;;;;18.60;10.48;;;;;;;;;;1920740;75;20423;-79
2021/06/20 07:25:10;;;;;;;19.08;12.05;;;;;;;;;;1920817;75;20098;-80
2021/06/20 07:27:37;;;;;;;13.85;10.05;;;;;;;;;;1920767;75;20102;-79
2021/06/20 07:30:05;;;;;;;14.60;9.98;;;;;;;;;;1920714;75;20110;-80
2021/06/20 07:32:33;;;;;;;16.70;10.45;;;;;;;;;;1920991;75;20091;-80
2021/06/20 07:35:01;;;;;;;14.35;9.90;;;;;;;;;;1918487;75;20099;-80
2021/06/20 07:37:28;;;;;;;14.80;9.57;;;;;;;;;;1921125;75;20118;-79
2021/06/20 07:39:55;;;;;;;15.95;9.52;;;;;;;;;;1921464;75;20091;-80
2021/06/20 07:42:22;;;;;;;15.38;9.48;;;;;;;;;;1921185;75;20118;-80
2021/06/20 07:44:49;;;;;;;13.70;9.20;;;;;;;;;;1920356;75;20083;-77
2021/06/20 07:47:16;;;;;;;12.52;7.95;;;;;;;;;;1920426;75;20090;-79
2021/06/20 07:49:43;;;;;;;18.88;8.05;;;;;;;;;;1920642;75;20095;-80
2021/06/20 07:52:11;;;;;;;14.57;7.55;;;;;;;;;;1920783;75;20083;-78
2021/06/20 07:54:42;;;;;;;16.70;8.40;;;;;;;;;;1920226;75;20385;-80
2021/06/20 07:57:09;;;;;;;14.50;7.95;;;;;;;;;;1920816;75;20246;-79
2021/06/20 07:59:36;;;;;;;18.58;8.65;;;;;;;;;;1920621;75;20148;-79
2021/06/20 08:02:03;;;;;;;16.45;8.90;;;;;;;;;;1920746;75;20083;-80
2021/06/20 08:04:29;;;;;;;19.73;9.40;;;;;;;;;;1923161;67;20102;-79
2021/06/20 08:06:56;;;;;;;15.65;8.00;;;;;;;;;;1920642;75;20117;-80
2021/06/20 08:09:24;;;;;;;15.00;8.55;;;;;;;;;;1920822;75;20091;-80
2021/06/20 08:11:51;;;;;;;17.83;9.48;;;;;;;;;;1921256;75;20087;-79
2021/06/20 08:14:19;;;;;;;14.63;8.35;;;;;;;;;;1921229;75;20079;-80
2021/06/20 08:16:46;;;;;;;15.98;9.77;;;;;;;;;;1921250;75;20164;-80
2021/06/20 08:19:13;;;;;;;17.45;9.15;;;;;;;;;;1920994;75;20113;-79
2021/06/20 08:21:40;;;;;;;19.80;8.70;;;;;;;;;;1920628;75;20103;-79
2021/06/20 08:24:10;;;;;;;13.27;8.40;;;;;;;;;;1921130;75;20091;-80
2021/06/20 08:26:45;;;;;;;13.80;8.90;;;;;;;;;;1916239;75;20132;-79
2021/06/20 08:29:12;;;;;;;11.50;7.75;;;;;;;;;;1921146;75;20106;-80
2021/06/20 08:31:39;;;;;;;16.95;8.63;;;;;;;;;;1920929;75;20249;-80
2021/06/20 08:34:07;;;;;;;16.88;7.75;;;;;;;;;;1921591;75;20089;-79
2021/06/20 08:36:34;;;;;;;14.32;7.65;;;;;;;;;;1920888;75;20125;-79
2021/06/20 08:39:01;;;;;;;14.68;5.95;;;;;;;;;;1921366;75;20156;-80
2021/06/20 08:41:31;;;;;;;14.10;6.65;;;;;;;;;;1920640;75;20091;-79
2021/06/20 08:44:02;;;;;;;16.45;8.15;;;;;;;;;;1921214;75;20083;-79
2021/06/20 08:46:30;;;;;;;14.23;7.22;;;;;;;;;;1921375;75;20083;-81
2021/06/20 08:48:57;;;;;;;13.13;6.78;;;;;;;;;;1921302;75;20091;-78
2021/06/20 08:51:26;;;;;;;15.90;5.95;;;;;;;;;;1920957;75;20091;-80
2021/06/20 08:53:53;;;;;;;16.90;9.32;;;;;;;;;;1921389;75;20102;-81
2021/06/20 08:56:21;;;;;;;17.83;7.93;;;;;;;;;;1921863;75;20099;-79
2021/06/20 08:58:48;;;;;;;14.50;6.25;;;;;;;;;;1921418;75;20119;-83
2021/06/20 09:01:16;;;;;;;16.60;5.65;;;;;;;;;;1921318;75;20097;-80
2021/06/20 09:03:45;;;;;;;15.52;6.32;;;;;;;;;;1922312;67;20405;-78
2021/06/20 09:06:16;;;;;;;14.93;5.28;;;;;;;;;;1921465;75;20120;-80
2021/06/20 09:08:49;;;;;;;12.55;5.50;;;;;;;;;;1921356;75;20103;-79
2021/06/20 09:11:26;;;;;;;15.80;5.70;;;;;;;;;;1921791;75;20091;-80
2021/06/20 09:14:01;;;;;;;13.67;5.10;;;;;;;;;;1920657;75;20095;-81
2021/06/20 09:16:30;;;;;;;15.27;6.05;;;;;;;;;;1921433;75;20568;-80
2021/06/20 09:18:58;;;;;;;16.45;6.22;;;;;;;;;;1921474;75;20125;-80
2021/06/20 09:21:27;;;;;;;14.32;5.18;;;;;;;;;;1921163;75;20139;-80
2021/06/20 09:23:58;;;;;;;12.82;6.45;;;;;;;;;;1921575;75;20088;-81
2021/06/20 09:26:40;;;;;;;16.20;6.30;;;;;;;;;;1921271;75;20094;-80
2021/06/20 09:29:21;;;;;;;17.35;6.20;;;;;;;;;;1920906;75;20091;-80
2021/06/20 09:35:19;;;;;;;14.07;6.22;;;;;;;;;;1912323;75;20095;-82
2021/06/20 09:37:53;;;;;;;16.83;6.25;;;;;;;;;;1911392;75;20096;-80
2021/06/20 09:40:22;;;;;;;15.77;5.78;;;;;;;;;;1918799;75;20283;-79
2021/06/20 09:42:49;;;;;;;18.53;6.23;;;;;;;;;;1920033;75;20113;-79
2021/06/20 09:45:26;;;;;;;16.55;8.45;;;;;;;;;;1920301;75;20369;-80
2021/06/20 09:47:54;;;;;;;20.75;8.90;;;;;;;;;;1920475;75;20083;-80
2021/06/20 09:50:35;;;;;;;13.23;6.82;;;;;;;;;;1920214;75;20099;-79
2021/06/20 09:53:02;;;;;;;13.80;6.38;;;;;;;;;;1919905;75;20087;-80
2021/06/20 09:55:29;;;;;;;15.95;6.22;;;;;;;;;;1919735;75;20095;-79
2021/06/20 09:58:01;;;;;;;17.08;7.10;;;;;;;;;;1919866;75;20091;-80
2021/06/20 10:00:38;;;;;;;17.88;7.50;;;;;;;;;;1919945;75;20087;-80
2021/06/20 10:03:06;;;;;;;15.15;6.03;;;;;;;;;;1920386;67;20401;-79
2021/06/20 10:05:34;;;;;;;14.57;6.43;;;;;;;;;;1920231;75;20083;-80
2021/06/20 10:08:02;;;;;;;15.50;5.95;;;;;;;;;;1920562;75;20099;-82
2021/06/20 10:10:30;;;;;;;16.95;6.63;;;;;;;;;;1920178;75;20087;-80
2021/06/20 10:12:57;;;;;;;13.63;6.25;;;;;;;;;;1920236;75;20091;-80
2021/06/20 10:16:02;;;;;;;15.00;7.30;;;;;;;;;;1919454;75;20087;-81
2021/06/20 10:18:29;;;;;;;16.27;6.20;;;;;;;;;;1909824;75;20149;-81
2021/06/20 10:21:00;;;;;;;17.17;7.07;;;;;;;;;;1919591;75;20088;-80
2021/06/20 10:23:27;;;;;;;18.90;6.55;;;;;;;;;;1921368;75;20091;-80
2021/06/20 10:26:07;;;;;;;17.70;7.07;;;;;;;;;;1922512;75;20090;-82
2021/06/20 10:28:34;;;;;;;15.35;6.00;;;;;;;;;;1922756;75;20097;-79
2021/06/20 10:31:07;;;;;;;14.85;7.38;;;;;;;;;;1922706;75;20103;-81
2021/06/20 10:33:34;;;;;;;16.10;6.50;;;;;;;;;;1921044;75;20091;-82
2021/06/20 10:36:04;;;;;;;12.93;6.50;;;;;;;;;;1920688;75;20115;-80
2021/06/20 10:38:34;;;;;;;21.13;6.95;;;;;;;;;;1920448;75;20099;-80
2021/06/20 10:41:01;;;;;;;15.68;6.07;;;;;;;;;;1920250;75;20164;-81
2021/06/20 10:43:28;;;;;;;17.08;6.28;;;;;;;;;;1920298;75;20117;-80
2021/06/20 10:45:55;;;;;;;14.38;5.90;;;;;;;;;;1920148;75;20140;-80
2021/06/20 10:48:24;;;;;;;15.90;6.68;;;;;;;;;;1920035;75;20091;-79
2021/06/20 10:50:53;;;;;;;16.52;6.68;;;;;;;;;;1920280;75;20147;-79
2021/06/20 10:53:22;;;;;;;14.77;6.65;;;;;;;;;;1920057;75;20091;-80
2021/06/20 10:55:51;;;;;;;14.43;6.55;;;;;;;;;;1918861;75;20090;-79
2021/06/20 10:58:21;;;;;;;12.75;6.00;;;;;;;;;;1920591;75;20091;-80
2021/06/20 11:00:49;;;;;;;17.17;7.40;;;;;;;;;;1919788;75;20113;-80
2021/06/20 11:03:22;;;;;;;18.15;7.38;;;;;;;;;;1919921;75;20148;-81
2021/06/20 11:05:51;;;;;;;15.00;6.68;;;;;;;;;;1920835;67;20439;-79
2021/06/20 11:08:37;;;;;;;18.43;6.97;;;;;;;;;;1920858;75;20583;-83
2021/06/20 11:11:12;;;;;;;16.33;6.75;;;;;;;;;;1920310;75;20083;-80
2021/06/20 11:13:39;;;;;;;17.27;7.55;;;;;;;;;;1919413;75;20083;-81
2021/06/20 11:16:08;;;;;;;15.90;6.40;;;;;;;;;;1918998;75;20083;-79
2021/06/20 11:18:35;;;;;;;14.00;6.00;;;;;;;;;;1919194;75;20382;-80
2021/06/20 11:21:03;;;;;;;14.05;6.30;;;;;;;;;;1919214;75;20231;-79
2021/06/20 11:23:31;;;;;;;18.35;6.65;;;;;;;;;;1919320;75;20098;-80
2021/06/20 11:26:01;;;;;;;18.85;6.82;;;;;;;;;;1919201;75;20378;-79
2021/06/20 11:28:27;;;;;;;;;;;;;;;;;;1919158;75;20103;-81
2021/06/20 11:31:04;;;;;;;12.52;5.65;;;;;;;;;;1918784;75;19970;-80
2021/06/20 11:33:31;;;;;;;17.58;7.05;;;;;;;;;;1919505;75;20145;-81
2021/06/20 11:35:58;;;;;;;14.55;6.55;;;;;;;;;;1919986;75;20087;-80
2021/06/20 11:38:29;;;;;;;17.27;6.95;;;;;;;;;;1920838;75;20113;-81
2021/06/20 11:40:56;;;;;;;16.75;5.63;;;;;;;;;;1921048;75;20127;-83
2021/06/20 11:43:24;;;;;;;15.32;6.78;;;;;;;;;;1922486;75;20121;-82
2021/06/20 11:45:51;;;;;;;17.60;7.15;;;;;;;;;;1922156;75;20140;-80
2021/06/20 11:48:18;;;;;;;17.73;6.88;;;;;;;;;;1921574;75;20083;-81
2021/06/20 11:51:03;;;;;;;13.25;6.13;;;;;;;;;;1923091;75;20095;-81
2021/06/20 11:53:30;;;;;;;19.58;7.13;;;;;;;;;;1915552;75;20091;-82
2021/06/20 11:55:57;;;;;;;14.98;6.57;;;;;;;;;;1923272;75;20113;-82
2021/06/20 11:58:25;;;;;;;17.45;7.13;;;;;;;;;;1921957;75;20091;-81
2021/06/20 12:00:52;;;;;;;29.23;9.25;;;;;;;;;;1921576;75;20083;-78
2021/06/20 12:03:21;;;;;;;13.77;7.85;;;;;;;;;;1922043;75;20075;-81
2021/06/20 12:05:51;;;;;;;27.13;14.93;;;;;;;;;;1923360;67;20106;-79
2021/06/20 12:08:23;;;;;;;16.52;6.88;;;;;;;;;;1923416;75;20095;-79
2021/06/20 12:10:50;;;;;;;19.58;8.18;;;;;;;;;;1922810;75;20087;-81
2021/06/20 12:13:18;;;;;;;16.50;7.70;;;;;;;;;;1921818;75;20095;-79
2021/06/20 12:16:05;;;;;;;18.75;8.55;;;;;;;;;;1922225;75;20075;-81
2021/06/20 12:23:38;;;;;;;15.05;7.78;;;;;;;;;;1922360;75;20085;-79
2021/06/20 12:26:30;;;;;;;15.80;7.60;;;;;;;;;;1923294;75;20140;-77
2021/06/20 12:29:32;;;;;;;18.00;7.38;;;;;;;;;;1920042;75;20083;-80
2021/06/20 12:38:19;;;;;;;16.85;7.18;;;;;;;;;;1901713;75;20278;-79
2021/06/20 12:40:55;;;;;;;17.48;6.47;;;;;;;;;;1899480;76;20098;-81
2021/06/20 12:43:34;;;;;;;20.83;7.15;;;;;;;;;;1899574;76;20095;-79
2021/06/20 12:46:32;;;;;;;21.50;7.67;;;;;;;;;;1901004;75;20117;-78
2021/06/20 12:52:04;;;;;;;18.00;7.00;;;;;;;;;;1904660;75;20121;-79
2021/06/20 12:54:57;;;;;;;15.77;6.45;;;;;;;;;;1900348;75;20078;-79
2021/06/20 12:57:36;;;;;;;15.45;5.88;;;;;;;;;;1907598;75;20618;-80
2021/06/20 13:00:22;;;;;;;14.90;6.07;;;;;;;;;;1902767;75;20117;-80
2021/06/20 13:03:34;;;;;;;17.50;6.20;;;;;;;;;;1907804;75;20243;-81
2021/06/20 13:06:03;;;;;;;16.70;6.15;;;;;;;;;;1899334;76;20091;-80
2021/06/20 13:08:34;;;;;;;15.43;5.82;;;;;;;;;;1899395;75;20794;-79
2021/06/20 13:11:26;;;;;;;15.55;6.03;;;;;;;;;;1908170;75;20104;-80
2021/06/20 13:14:18;;;;;;;20.30;5.85;;;;;;;;;;1913332;75;20089;-79
2021/06/20 13:16:47;;;;;;;15.23;5.63;;;;;;;;;;1911245;75;20147;-77
2021/06/20 13:19:42;;;;;;;15.32;6.45;;;;;;;;;;1903903;75;20092;-78
2021/06/20 13:22:15;;;;;;;18.73;6.15;;;;;;;;;;1904497;75;20098;-81
2021/06/20 13:24:43;;;;;;;17.50;7.22;;;;;;;;;;1904246;75;20101;-78
2021/06/20 13:27:11;;;;;;;20.90;6.85;;;;;;;;;;1901928;75;20147;-81
2021/06/20 13:29:37;;;;;;;23.70;6.90;;;;;;;;;;1910072;75;20506;-80
2021/06/20 13:32:05;;;;;;;18.50;6.45;;;;;;;;;;1917344;75;20512;-80
2021/06/20 13:34:32;;;;;;;19.30;6.80;;;;;;;;;;1922294;75;20091;-80
2021/06/20 13:36:59;;;;;;;19.27;5.85;;;;;;;;;;1921835;75;20111;-78
2021/06/20 13:39:25;;;;;;;14.93;6.13;;;;;;;;;;1921939;75;20091;-81
2021/06/20 13:41:54;;;;;;;16.65;5.80;;;;;;;;;;1921707;75;20117;-80
2021/06/20 13:44:21;;;;;;;16.70;5.65;;;;;;;;;;1922405;75;20499;-78
2021/06/20 13:46:49;;;;;;;15.38;5.93;;;;;;;;;;1922299;75;20109;-79
2021/06/20 13:49:18;;;;;;;20.27;5.37;;;;;;;;;;1922013;75;20091;-77
2021/06/20 13:51:45;;;;;;;16.10;5.85;;;;;;;;;;1921881;75;20075;-79
2021/06/20 13:54:12;;;;;;;17.10;6.57;;;;;;;;;;1921442;75;20091;-78
2021/06/20 13:56:39;;;;;;;14.57;7.60;;;;;;;;;;1916453;75;20083;-80
2021/06/20 13:59:07;;;;;;;20.60;6.32;;;;;;;;;;1916219;75;20091;-80
2021/06/20 14:01:36;;;;;;;15.55;5.93;;;;;;;;;;1917966;75;20083;-80
2021/06/20 14:04:05;;;;;;;14.57;5.87;;;;;;;;;;1913676;67;20095;-80
2021/06/20 14:06:34;;;;;;;19.95;6.63;;;;;;;;;;1912770;75;20790;-80
2021/06/20 14:09:01;;;;;;;19.13;6.65;;;;;;;;;;1913993;75;20089;-78
2021/06/20 14:11:29;;;;;;;20.10;5.90;;;;;;;;;;1916451;75;20123;-77
2021/06/20 14:19:02;;;;;;;17.45;5.93;;;;;;;;;;1916859;75;20098;-81
2021/06/20 14:21:37;;;;;;;17.23;5.95;;;;;;;;;;1916690;75;20095;-79
2021/06/20 14:24:07;;;;;;;19.73;6.22;;;;;;;;;;1916790;75;20080;-81
2021/06/20 14:26:36;;;;;;;16.15;6.55;;;;;;;;;;1916661;75;20096;-79
2021/06/20 14:29:08;;;;;;;12.93;6.30;;;;;;;;;;1913430;75;20111;-80
2021/06/20 14:31:38;;;;;;;18.48;6.65;;;;;;;;;;1911556;75;20096;-81
2021/06/20 14:34:13;;;;;;;14.23;6.00;;;;;;;;;;1907215;75;20093;-80
2021/06/20 14:36:44;;;;;;;17.45;6.40;;;;;;;;;;1907264;75;20097;-80
2021/06/20 14:39:46;;;;;;;14.32;6.78;;;;;;;;;;1904683;75;20124;-80
2021/06/20 14:42:14;;;;;;;18.08;8.07;;;;;;;;;;1910131;75;20095;-79
2021/06/20 14:44:48;;;;;;;21.00;6.97;;;;;;;;;;1904448;75;20100;-79
2021/06/20 14:47:15;;;;;;;16.75;6.72;;;;;;;;;;1903471;75;20121;-79
2021/06/20 14:49:44;;;;;;;18.55;6.45;;;;;;;;;;1903257;75;20122;-80
2021/06/20 14:52:12;;;;;;;13.57;6.28;;;;;;;;;;1904387;75;20093;-81
2021/06/20 14:54:41;;;;;;;16.00;6.70;;;;;;;;;;1901433;75;20093;-81
2021/06/20 14:57:11;;;;;;;17.95;7.32;;;;;;;;;;1905919;75;20157;-80
2021/06/20 14:59:38;;;;;;;18.98;7.15;;;;;;;;;;1906903;75;20085;-79
2021/06/20 15:02:05;;;;;;;19.08;8.15;;;;;;;;;;1906973;75;20230;-80
2021/06/20 15:04:32;;;;;;;13.68;7.25;;;;;;;;;;1907502;75;20100;-81
2021/06/20 15:07:00;;;;;;;18.92;10.15;;;;;;;;;;1910420;75;20093;-80
2021/06/20 15:09:27;;;;;;;13.73;7.90;;;;;;;;;;1910207;75;20178;-81
2021/06/20 15:11:54;;;;;;;17.05;7.63;;;;;;;;;;1910474;75;20127;-79